createdAt,value
2023-04-17T00:00:01.580Z,95363.41
2023-04-17T00:02:30.099Z,95363.41
2023-04-17T00:04:57.797Z,95363.41
2023-04-17T00:07:28.447Z,95360.78
2023-04-17T00:09:55.901Z,95362.44
2023-04-17T00:12:23.324Z,95362.56
2023-04-17T00:14:50.780Z,95355.56
2023-04-17T00:17:18.212Z,95354.75
2023-04-17T00:19:45.858Z,95357.34
2023-04-17T00:22:13.340Z,95352.97
2023-04-17T00:24:42.166Z,95357.34
2023-04-17T00:27:09.971Z,95359.16
2023-04-17T00:29:37.610Z,95352.13
2023-04-17T00:32:05.270Z,95347.91
2023-04-17T00:34:32.823Z,95348.72
2023-04-17T00:37:00.404Z,95358.34
2023-04-17T00:39:27.897Z,95355.72
2023-04-17T00:41:57.458Z,95353.13
2023-04-17T00:44:24.978Z,95352.13
2023-04-17T00:46:52.513Z,95357.34
2023-04-17T00:49:20.465Z,95348.72
2023-04-17T00:51:47.947Z,95346.13
2023-04-17T00:54:15.676Z,95351.34
2023-04-17T00:56:43.993Z,95351.34
2023-04-17T00:59:13.802Z,95359.16
2023-04-17T01:01:41.556Z,95354.75
2023-04-17T01:04:10.005Z,95347.91
2023-04-17T01:06:37.574Z,95348.59
2023-04-17T01:09:05.030Z,95346.13
2023-04-17T01:11:32.468Z,95346.13
2023-04-17T01:13:59.924Z,95346.94
2023-04-17T01:16:30.387Z,95341.72
2023-04-17T01:18:57.961Z,95340.09
2023-04-17T01:21:25.656Z,95344.47
2023-04-17T01:23:53.743Z,95341.72
2023-04-17T01:26:23.213Z,95345.28
2023-04-17T01:28:51.304Z,95334.03
2023-04-17T01:31:18.823Z,95337.31
2023-04-17T01:33:46.336Z,95336.66
2023-04-17T01:36:13.761Z,95334.88
2023-04-17T01:38:41.160Z,95328.66
2023-04-17T01:41:10.544Z,95333.09
2023-04-17T01:43:42.714Z,95330.59
2023-04-17T01:46:10.498Z,95338.31
2023-04-17T01:48:37.983Z,95340.09
2023-04-17T01:51:06.193Z,95340.91
2023-04-17T01:53:33.965Z,95341.84
2023-04-17T01:56:01.958Z,95346.13
2023-04-17T01:58:29.508Z,95346.94
2023-04-17T02:00:58.406Z,95353.13
2023-04-17T02:03:25.978Z,95362.72
2023-04-17T02:05:53.534Z,95353.13
2023-04-17T02:08:21.047Z,95352.28
2023-04-17T02:10:48.459Z,95343.63
2023-04-17T02:13:15.979Z,95344.47
2023-04-17T02:15:43.600Z,95344.47
2023-04-17T02:18:12.681Z,95343.63
2023-04-17T02:20:40.162Z,95344.47
2023-04-17T02:23:07.850Z,95339.41
2023-04-17T02:25:35.397Z,95341.84
2023-04-17T02:28:02.943Z,95347.91
2023-04-17T02:30:30.394Z,95341.03
2023-04-17T02:32:58.199Z,95338.41
2023-04-17T02:35:28.084Z,95341.84
2023-04-17T02:37:55.497Z,95344.47
2023-04-17T02:40:22.945Z,95348.84
2023-04-17T02:42:50.413Z,95344.47
2023-04-17T02:45:17.851Z,95352.28
2023-04-17T02:47:45.355Z,95341.03
2023-04-17T02:50:13.130Z,95339.25
2023-04-17T02:52:41.953Z,95336.66
2023-04-17T02:55:09.690Z,95352.28
2023-04-17T02:57:37.166Z,95345.28
2023-04-17T03:00:08.073Z,95339.25
2023-04-17T03:02:36.214Z,95346.25
2023-04-17T03:05:04.266Z,95345.28
2023-04-17T03:07:31.714Z,95348.84
2023-04-17T03:10:00.508Z,95344.47
2023-04-17T03:12:27.969Z,95340.91
2023-04-17T03:14:55.456Z,95350.50
2023-04-17T03:17:22.927Z,95340.91
2023-04-17T03:19:50.424Z,95337.47
2023-04-17T03:22:17.838Z,95333.22
2023-04-17T03:24:45.490Z,95334.88
2023-04-17T03:27:14.336Z,95330.59
2023-04-17T03:29:41.795Z,95336.66
2023-04-17T03:32:09.336Z,95336.66
2023-04-17T03:34:37.064Z,95336.66
2023-04-17T03:37:04.497Z,95340.91
2023-04-17T03:39:31.907Z,95335.81
2023-04-17T03:41:59.351Z,95333.22
2023-04-17T03:44:28.108Z,95339.25
2023-04-17T03:46:55.588Z,95341.84
2023-04-17T03:49:23.070Z,95335.81
2023-04-17T03:51:50.659Z,95344.47
2023-04-17T03:54:18.103Z,95337.47
2023-04-17T03:56:45.619Z,95337.59
2023-04-17T03:59:13.200Z,95337.47
2023-04-17T04:01:43.828Z,95342.69
2023-04-17T04:04:12.384Z,95339.25
2023-04-17T04:06:41.105Z,95340.91
2023-04-17T04:09:08.584Z,95353.13
2023-04-17T04:11:36.069Z,95356.66
2023-04-17T04:14:03.544Z,95360.94
2023-04-17T04:16:31.124Z,95363.53
2023-04-17T04:19:00.008Z,95367.78
2023-04-17T04:21:28.226Z,95369.59
2023-04-17T04:23:56.830Z,95367.00
2023-04-17T04:26:25.370Z,95373.00
2023-04-17T04:28:52.866Z,95369.44
2023-04-17T04:31:20.679Z,95367.78
2023-04-17T04:33:48.228Z,95371.22
2023-04-17T04:36:20.897Z,95370.38
2023-04-17T04:38:50.342Z,95371.22
2023-04-17T04:41:20.021Z,95362.56
2023-04-17T04:43:47.548Z,95364.22
2023-04-17T04:46:15.074Z,95365.06
2023-04-17T04:48:42.934Z,95371.22
2023-04-17T04:51:10.601Z,95364.38
2023-04-17T04:53:39.428Z,95370.38
2023-04-17T04:56:07.158Z,95365.19
2023-04-17T04:58:34.609Z,95370.38
2023-04-17T05:01:02.185Z,95376.44
2023-04-17T05:03:29.841Z,95375.59
2023-04-17T05:05:57.336Z,95370.38
2023-04-17T05:08:24.787Z,95369.59
2023-04-17T05:10:53.541Z,95368.63
2023-04-17T05:13:21.000Z,95360.78
2023-04-17T05:15:48.491Z,95361.63
2023-04-17T05:18:15.998Z,95369.44
2023-04-17T05:20:43.431Z,95360.78
2023-04-17T05:23:10.918Z,95372.06
2023-04-17T05:25:38.371Z,95373.81
2023-04-17T05:28:07.267Z,95379.03
2023-04-17T05:30:34.781Z,95379.88
2023-04-17T05:33:02.319Z,95382.47
2023-04-17T05:35:29.921Z,95382.47
2023-04-17T05:37:57.363Z,95385.91
2023-04-17T05:40:24.872Z,95391.94
2023-04-17T05:42:52.312Z,95396.34
2023-04-17T05:45:22.226Z,95398.13
2023-04-17T05:47:51.034Z,95397.28
2023-04-17T05:50:18.626Z,95402.34
2023-04-17T05:52:48.255Z,95400.72
2023-04-17T05:55:15.889Z,95403.34
2023-04-17T05:57:43.336Z,95388.63
2023-04-17T06:00:13.019Z,95401.56
2023-04-17T06:02:45.000Z,95398.94
2023-04-17T06:05:12.904Z,95403.34
2023-04-17T06:07:40.514Z,95411.16
2023-04-17T06:10:08.923Z,95405.13
2023-04-17T06:12:36.433Z,95400.72
2023-04-17T06:15:04.363Z,95407.56
2023-04-17T06:17:31.891Z,95415.53
2023-04-17T06:20:00.711Z,95412.94
2023-04-17T06:22:28.137Z,95421.59
2023-04-17T06:24:55.695Z,95423.38
2023-04-17T06:27:23.116Z,95426.81
2023-04-17T06:29:50.562Z,95440.69
2023-04-17T06:32:18.120Z,95437.22
2023-04-17T06:34:58.469Z,95431.19
2023-04-17T06:37:28.133Z,95432.97
2023-04-17T06:39:55.602Z,95442.44
2023-04-17T06:42:23.016Z,95439.00
2023-04-17T06:44:50.440Z,95438.19
2023-04-17T06:47:17.852Z,95441.47
2023-04-17T06:49:45.394Z,95436.41
2023-04-17T06:52:12.893Z,95420.91
2023-04-17T06:54:41.687Z,95431.19
2023-04-17T06:57:10.752Z,95430.34
2023-04-17T06:59:38.199Z,95431.19
2023-04-17T07:02:05.770Z,95438.19
2023-04-17T07:04:33.357Z,95434.78
2023-04-17T07:07:00.783Z,95433.78
2023-04-17T07:09:28.234Z,95439.84
2023-04-17T07:11:57.056Z,95434.78
2023-04-17T07:14:24.482Z,95436.41
2023-04-17T07:16:52.017Z,95444.22
2023-04-17T07:19:19.568Z,95440.78
2023-04-17T07:21:47.022Z,95441.63
2023-04-17T07:24:14.435Z,95446.00
2023-04-17T07:26:43.295Z,95438.19
2023-04-17T07:29:12.296Z,95439.00
2023-04-17T07:31:39.901Z,95442.44
2023-04-17T07:34:07.376Z,95443.41
2023-04-17T07:36:34.993Z,95436.41
2023-04-17T07:39:02.522Z,95438.19
2023-04-17T07:41:29.949Z,95446.84
2023-04-17T07:43:59.135Z,95446.69
2023-04-17T07:46:28.168Z,95454.66
2023-04-17T07:48:55.688Z,95453.72
2023-04-17T07:51:23.170Z,95461.53
2023-04-17T07:53:50.688Z,95465.91
2023-04-17T07:56:18.379Z,95462.47
2023-04-17T07:58:46.473Z,95470.16
2023-04-17T08:01:13.942Z,95470.97
2023-04-17T08:03:44.859Z,95474.56
2023-04-17T08:06:12.641Z,95469.34
2023-04-17T08:08:40.085Z,95476.34
2023-04-17T08:11:07.529Z,95475.38
2023-04-17T08:13:35.004Z,95477.19
2023-04-17T08:16:02.504Z,95467.53
2023-04-17T08:18:29.996Z,95467.69
2023-04-17T08:20:58.979Z,95478.13
2023-04-17T08:23:26.561Z,95474.56
2023-04-17T08:25:54.086Z,95475.50
2023-04-17T08:28:21.850Z,95473.75
2023-04-17T08:30:49.327Z,95473.75
2023-04-17T08:33:17.081Z,95484.16
2023-04-17T08:35:45.011Z,95481.56
2023-04-17T08:38:14.884Z,95485.00
2023-04-17T08:40:43.390Z,95484.31
2023-04-17T08:43:14.568Z,95481.56
2023-04-17T08:45:44.910Z,95487.72
2023-04-17T08:48:13.481Z,95486.78
2023-04-17T08:50:42.708Z,95488.56
2023-04-17T08:53:10.453Z,95485.13
2023-04-17T08:55:39.281Z,95488.56
2023-04-17T08:58:09.099Z,95492.00
2023-04-17T09:00:37.839Z,95485.13
2023-04-17T09:03:07.803Z,95482.38
2023-04-17T09:05:37.315Z,95482.50
2023-04-17T09:08:09.254Z,95482.50
2023-04-17T09:10:37.772Z,95485.13
2023-04-17T09:13:07.493Z,95483.34
2023-04-17T09:15:35.323Z,95487.72
2023-04-17T09:18:03.493Z,95492.00
2023-04-17T09:20:31.054Z,95483.34
2023-04-17T09:22:59.897Z,95492.00
2023-04-17T09:25:28.209Z,95491.16
2023-04-17T09:27:56.227Z,95490.31
2023-04-17T09:30:27.099Z,95489.38
2023-04-17T09:33:03.990Z,95492.00
2023-04-17T09:35:31.798Z,95482.50
2023-04-17T09:37:59.591Z,95492.94
2023-04-17T09:40:27.936Z,95487.72
2023-04-17T09:42:56.904Z,95487.72
2023-04-17T09:45:24.939Z,95487.72
2023-04-17T09:47:55.831Z,95492.00
2023-04-17T09:50:24.835Z,95491.97
2023-04-17T09:52:52.962Z,95492.69
2023-04-17T09:55:22.334Z,95482.66
2023-04-17T09:57:50.720Z,95491.84
2023-04-17T10:00:19.433Z,95491.59
2023-04-17T10:02:48.691Z,95490.63
2023-04-17T10:05:17.979Z,95492.53
2023-04-17T10:07:45.768Z,95491.03
2023-04-17T10:10:13.762Z,95480.88
2023-04-17T10:12:41.948Z,95481.00
2023-04-17T10:15:10.596Z,95473.31
2023-04-17T10:17:38.409Z,95473.19
2023-04-17T10:20:24.580Z,95480.06
2023-04-17T10:22:54.807Z,95476.47
2023-04-17T10:25:23.439Z,95476.63
2023-04-17T10:27:51.954Z,95470.88
2023-04-17T10:30:21.799Z,95466.47
2023-04-17T10:33:04.224Z,95465.34
2023-04-17T10:35:35.752Z,95459.88
2023-04-17T10:38:06.372Z,95466.75
2023-04-17T10:40:34.667Z,95470.03
2023-04-17T10:43:06.138Z,95465.63
2023-04-17T10:45:52.353Z,95468.13
2023-04-17T10:48:23.752Z,95469.75
2023-04-17T10:50:51.233Z,95465.34
2023-04-17T10:53:33.604Z,95463.44
2023-04-17T10:56:03.642Z,95464.28
2023-04-17T10:58:32.182Z,95452.59
2023-04-17T11:01:03.811Z,95460.00
2023-04-17T11:03:31.903Z,95458.66
2023-04-17T11:06:00.217Z,95457.69
2023-04-17T11:08:28.041Z,95449.44
2023-04-17T11:10:57.028Z,95452.88
2023-04-17T11:13:25.850Z,95445.72
2023-04-17T11:15:53.282Z,95451.78
2023-04-17T11:18:21.722Z,95452.56
2023-04-17T11:20:49.955Z,95451.78
2023-04-17T11:23:17.511Z,95448.03
2023-04-17T11:25:45.099Z,95444.34
2023-04-17T11:28:13.598Z,95449.28
2023-04-17T11:30:44.785Z,95445.72
2023-04-17T11:33:13.215Z,95442.28
2023-04-17T11:35:41.436Z,95446.25
2023-04-17T11:38:13.871Z,95441.97
2023-04-17T11:40:45.042Z,95448.03
2023-04-17T11:43:12.992Z,95438.56
2023-04-17T11:45:42.977Z,95435.97
2023-04-17T11:48:11.991Z,95436.91
2023-04-17T11:50:39.921Z,95436.91
2023-04-17T11:53:07.595Z,95438.00
2023-04-17T11:55:35.623Z,95437.31
2023-04-17T11:58:05.229Z,95433.09
2023-04-17T12:00:33.106Z,95433.22
2023-04-17T12:03:02.981Z,95432.69
2023-04-17T12:05:31.787Z,95432.00
2023-04-17T12:08:00.217Z,95433.09
2023-04-17T12:10:36.668Z,95432.94
2023-04-17T12:13:04.091Z,95431.84
2023-04-17T12:15:31.572Z,95440.34
2023-04-17T12:17:59.217Z,95431.69
2023-04-17T12:20:28.108Z,95429.91
2023-04-17T12:22:55.573Z,95432.69
2023-04-17T12:27:50.807Z,95428.72
2023-04-17T12:30:18.268Z,95425.13
2023-04-17T12:32:48.859Z,95425.13
2023-04-17T12:35:16.835Z,95423.34
2023-04-17T12:37:48.462Z,95413.72
2023-04-17T12:40:16.706Z,95410.28
2023-04-17T12:42:49.165Z,95412.91
2023-04-17T12:45:17.694Z,95415.94
2023-04-17T12:47:45.356Z,95414.31
2023-04-17T12:50:13.057Z,95402.72
2023-04-17T12:52:40.707Z,95402.72
2023-04-17T12:55:10.058Z,95396.72
2023-04-17T12:57:37.538Z,95398.50
2023-04-17T13:00:07.195Z,95403.56
2023-04-17T13:02:34.827Z,95395.22
2023-04-17T13:05:03.000Z,95405.50
2023-04-17T13:07:30.636Z,95399.56
2023-04-17T13:09:58.622Z,95403.13
2023-04-17T13:12:27.448Z,95403.13
2023-04-17T13:14:57.279Z,95399.56
2023-04-17T13:17:25.140Z,95396.13
2023-04-17T13:19:52.691Z,95395.28
2023-04-17T13:22:20.633Z,95382.00
2023-04-17T13:24:48.121Z,95387.06
2023-04-17T13:27:15.536Z,95382.00
2023-04-17T13:29:44.359Z,95382.84
2023-04-17T13:32:11.883Z,95386.41
2023-04-17T13:34:39.334Z,95385.59
2023-04-17T13:37:07.273Z,95383.06
2023-04-17T13:39:34.724Z,95379.56
2023-04-17T13:42:02.414Z,95379.78
2023-04-17T13:44:29.878Z,95382.25
2023-04-17T13:46:58.842Z,95375.16
2023-04-17T13:49:27.047Z,95374.34
2023-04-17T13:51:54.534Z,95373.47
2023-04-17T13:54:22.008Z,95377.78
2023-04-17T13:56:49.495Z,95377.63
2023-04-17T13:59:16.997Z,95377.63
2023-04-17T14:01:44.506Z,95373.34
2023-04-17T14:04:13.470Z,95375.97
2023-04-17T14:06:43.653Z,95368.13
2023-04-17T14:09:12.019Z,95370.84
2023-04-17T14:11:39.709Z,95368.41
2023-04-17T14:14:07.148Z,95361.38
2023-04-17T14:16:34.770Z,95360.44
2023-04-17T14:19:12.626Z,95350.75
2023-04-17T14:21:43.782Z,95353.34
2023-04-17T14:24:11.420Z,95350.16
2023-04-17T14:26:39.464Z,95343.69
2023-04-17T14:29:07.102Z,95347.78
2023-04-17T14:31:35.223Z,95339.81
2023-04-17T14:34:02.862Z,95342.41
2023-04-17T14:36:31.147Z,95332.78
2023-04-17T14:39:00.282Z,95334.44
2023-04-17T14:41:29.983Z,95342.13
2023-04-17T14:43:57.696Z,95338.69
2023-04-17T14:46:25.406Z,95324.81
2023-04-17T14:48:56.119Z,95331.69
2023-04-17T14:51:24.073Z,95327.28
2023-04-17T14:53:53.014Z,95332.53
2023-04-17T14:56:22.524Z,95329.91
2023-04-17T14:58:50.125Z,95327.28
2023-04-17T15:01:17.862Z,95331.53
2023-04-17T15:03:47.884Z,95336.75
2023-04-17T15:06:16.593Z,95340.19
2023-04-17T15:08:46.007Z,95349.97
2023-04-17T15:11:13.715Z,95358.47
2023-04-17T15:13:42.696Z,95348.03
2023-04-17T15:16:11.044Z,95346.25
2023-04-17T15:18:39.415Z,95335.81
2023-04-17T15:21:07.465Z,95358.47
2023-04-17T15:23:35.616Z,95343.63
2023-04-17T15:26:03.253Z,95350.63
2023-04-17T15:28:30.841Z,95348.03
2023-04-17T15:30:59.846Z,95348.97
2023-04-17T15:33:27.408Z,95350.63
2023-04-17T15:35:56.216Z,95355.72
2023-04-17T15:38:23.866Z,95353.09
2023-04-17T15:40:51.684Z,95352.16
2023-04-17T15:43:20.075Z,95352.97
2023-04-17T15:45:49.602Z,95344.31
2023-04-17T15:48:18.725Z,95343.31
2023-04-17T15:50:46.358Z,95336.31
2023-04-17T15:53:13.976Z,95334.69
2023-04-17T15:55:41.657Z,95322.44
2023-04-17T15:58:09.385Z,95326.72
2023-04-17T16:00:37.059Z,95321.63
2023-04-17T16:03:07.373Z,95322.44
2023-04-17T16:05:36.533Z,95326.03
2023-04-17T16:08:04.151Z,95323.41
2023-04-17T16:10:31.801Z,95330.44
2023-04-17T16:12:59.377Z,95333.03
2023-04-17T16:15:27.239Z,95326.03
2023-04-17T16:17:54.879Z,95325.19
2023-04-17T16:20:22.493Z,95337.31
2023-04-17T16:22:51.480Z,95337.31
2023-04-17T16:25:20.754Z,95330.44
2023-04-17T16:27:48.544Z,95335.66
2023-04-17T16:30:16.324Z,95325.19
2023-04-17T16:32:45.321Z,95336.47
2023-04-17T16:35:13.008Z,95337.31
2023-04-17T16:37:40.685Z,95337.31
2023-04-17T16:40:11.591Z,95335.66
2023-04-17T16:42:39.242Z,95345.16
2023-04-17T16:45:07.967Z,95338.25
2023-04-17T16:47:35.687Z,95344.31
2023-04-17T16:50:03.654Z,95345.16
2023-04-17T16:52:31.280Z,95341.69
2023-04-17T16:54:59.423Z,95346.09
2023-04-17T16:57:28.367Z,95340.72
2023-04-17T16:59:55.969Z,95346.94
2023-04-17T17:02:23.656Z,95345.16
2023-04-17T17:04:51.417Z,95348.72
2023-04-17T17:07:18.995Z,95352.16
2023-04-17T17:09:46.570Z,95352.16
2023-04-17T17:12:14.142Z,95358.19
2023-04-17T17:14:43.163Z,95360.81
2023-04-17T17:17:10.756Z,95360.81
2023-04-17T17:19:38.422Z,95361.59
2023-04-17T17:22:06.058Z,95365.19
2023-04-17T17:24:33.620Z,95369.44
2023-04-17T17:27:01.652Z,95374.66
2023-04-17T17:29:29.354Z,95374.66
2023-04-17T17:31:58.367Z,95371.25
2023-04-17T17:34:27.004Z,95373.72
2023-04-17T17:36:55.126Z,95370.28
2023-04-17T17:39:22.803Z,95369.44
2023-04-17T17:41:50.628Z,95370.28
2023-04-17T17:44:18.370Z,95372.88
2023-04-17T17:46:46.011Z,95362.44
2023-04-17T17:49:14.968Z,95373.72
2023-04-17T17:51:44.527Z,95373.88
2023-04-17T17:54:12.458Z,95370.44
2023-04-17T17:56:40.405Z,95381.69
2023-04-17T17:59:08.030Z,95385.94
2023-04-17T18:01:35.751Z,95376.47
2023-04-17T18:04:03.605Z,95383.34
2023-04-17T18:06:32.686Z,95379.88
2023-04-17T18:09:00.453Z,95389.38
2023-04-17T18:11:28.649Z,95383.34
2023-04-17T18:13:56.235Z,95382.50
2023-04-17T18:16:24.871Z,95390.34
2023-04-17T18:18:52.634Z,95392.16
2023-04-17T18:21:20.206Z,95393.94
2023-04-17T18:23:49.117Z,95387.72
2023-04-17T18:26:16.732Z,95391.31
2023-04-17T18:28:44.337Z,95392.16
2023-04-17T18:31:12.518Z,95394.75
2023-04-17T18:33:40.209Z,95404.22
2023-04-17T18:36:08.302Z,95395.56
2023-04-17T18:38:36.171Z,95404.22
2023-04-17T18:41:05.143Z,95405.22
2023-04-17T18:43:32.737Z,95407.81
2023-04-17T18:46:03.868Z,95412.22
2023-04-17T18:48:32.074Z,95417.28
2023-04-17T18:51:09.303Z,95411.22
2023-04-17T18:53:36.919Z,95409.59
2023-04-17T18:56:06.594Z,95411.22
2023-04-17T18:58:34.155Z,95413.84
2023-04-17T19:01:01.902Z,95414.66
2023-04-17T19:03:29.548Z,95411.22
2023-04-17T19:05:57.140Z,95409.44
2023-04-17T19:08:24.890Z,95414.66
2023-04-17T19:10:52.446Z,95415.50
2023-04-17T19:13:21.503Z,95414.66
2023-04-17T19:15:49.129Z,95416.47
2023-04-17T19:18:16.714Z,95419.91
2023-04-17T19:20:44.283Z,95425.13
2023-04-17T19:23:11.917Z,95419.06
2023-04-17T19:25:41.535Z,95419.91
2023-04-17T19:28:10.803Z,95419.06
2023-04-17T19:30:39.972Z,95418.13
2023-04-17T19:33:07.716Z,95414.66
2023-04-17T19:35:35.388Z,95415.50
2023-04-17T19:38:03.243Z,95417.97
2023-04-17T19:40:31.034Z,95415.50
2023-04-17T19:43:01.277Z,95407.66
2023-04-17T19:45:29.077Z,95414.56
2023-04-17T19:47:58.123Z,95412.75
2023-04-17T19:50:27.146Z,95409.31
2023-04-17T19:52:55.558Z,95412.75
2023-04-17T19:55:23.316Z,95409.31
2023-04-17T19:57:52.133Z,95409.31
2023-04-17T20:00:20.136Z,95407.50
2023-04-17T20:02:48.034Z,95398.06
2023-04-17T20:05:18.410Z,95402.44
2023-04-17T20:07:46.063Z,95401.63
2023-04-17T20:10:13.718Z,95404.91
2023-04-17T20:12:41.333Z,95398.88
2023-04-17T20:15:10.372Z,95392.00
2023-04-17T20:17:38.022Z,95388.56
2023-04-17T20:20:06.583Z,95400.66
2023-04-17T20:22:35.837Z,95397.22
2023-04-17T20:25:04.898Z,95402.44
2023-04-17T20:27:33.010Z,95398.16
2023-04-17T20:30:01.061Z,95400.66
2023-04-17T20:32:28.660Z,95405.88
2023-04-17T20:34:56.297Z,95402.44
2023-04-17T20:37:24.078Z,95397.22
2023-04-17T20:39:53.070Z,95402.28
2023-04-17T20:42:20.697Z,95399.84
2023-04-17T20:44:48.291Z,95400.66
2023-04-17T20:47:15.913Z,95404.09
2023-04-17T20:49:43.495Z,95400.66
2023-04-17T20:52:11.119Z,95404.09
2023-04-17T20:54:38.717Z,95395.44
2023-04-17T20:57:07.671Z,95396.13
2023-04-17T20:59:36.574Z,95402.28
2023-04-17T21:02:04.478Z,95397.06
2023-04-17T21:04:32.230Z,95398.88
2023-04-17T21:07:00.068Z,95392.00
2023-04-17T21:09:27.890Z,95397.22
2023-04-17T21:11:55.827Z,95392.81
2023-04-17T21:14:24.824Z,95400.66
2023-04-17T21:16:54.848Z,95394.59
2023-04-17T21:19:24.155Z,95394.59
2023-04-17T21:21:51.778Z,95391.16
2023-04-17T21:24:19.380Z,95386.09
2023-04-17T21:26:46.980Z,95390.34
2023-04-17T21:29:14.744Z,95388.56
2023-04-17T21:31:43.868Z,95396.38
2023-04-17T21:34:11.709Z,95392.00
2023-04-17T21:36:39.555Z,95391.16
2023-04-17T21:39:08.642Z,95387.72
2023-04-17T21:41:36.272Z,95382.50
2023-04-17T21:44:05.615Z,95385.13
2023-04-17T21:46:33.338Z,95378.09
2023-04-17T21:49:02.376Z,95380.88
2023-04-17T21:51:29.947Z,95378.25
2023-04-17T21:53:57.563Z,95380.88
2023-04-17T21:56:25.222Z,95379.09
2023-04-17T21:58:52.846Z,95377.44
2023-04-17T22:01:20.528Z,95380.88
2023-04-17T22:03:48.216Z,95376.47
2023-04-17T22:06:17.166Z,95384.31
2023-04-17T22:08:44.757Z,95380.88
2023-04-17T22:11:12.805Z,95376.47
2023-04-17T22:13:40.429Z,95383.50
2023-04-17T22:16:08.063Z,95387.72
2023-04-17T22:18:35.684Z,95382.50
2023-04-17T22:21:03.595Z,95384.31
2023-04-17T22:23:32.533Z,95386.78
2023-04-17T22:26:00.725Z,95380.03
2023-04-17T22:28:30.175Z,95384.31
2023-04-17T22:30:57.861Z,95385.13
2023-04-17T22:33:26.174Z,95384.31
2023-04-17T22:35:53.853Z,95379.09
2023-04-17T22:38:21.795Z,95381.69
2023-04-17T22:40:50.723Z,95389.53
2023-04-17T22:43:18.306Z,95387.72
2023-04-17T22:45:46.069Z,95378.09
2023-04-17T22:48:13.754Z,95381.69
2023-04-17T22:50:41.393Z,95375.66
2023-04-17T22:53:09.015Z,95380.03
2023-04-17T22:55:37.086Z,95376.59
2023-04-17T22:58:06.033Z,95380.88
2023-04-17T23:00:33.690Z,95378.25
2023-04-17T23:03:01.420Z,95371.38
2023-04-17T23:05:29.390Z,95380.03
2023-04-17T23:07:57.034Z,95373.03
2023-04-17T23:10:24.616Z,95375.81
2023-04-17T23:12:52.199Z,95370.59
2023-04-17T23:15:21.226Z,95373.19
2023-04-17T23:17:48.972Z,95374.00
2023-04-17T23:20:16.772Z,95369.59
2023-04-17T23:22:44.432Z,95370.59
2023-04-17T23:25:12.345Z,95370.59
2023-04-17T23:27:39.987Z,95374.97
2023-04-17T23:30:08.841Z,95368.78
2023-04-17T23:32:37.870Z,95365.34
2023-04-17T23:35:06.383Z,95367.97
2023-04-17T23:37:34.034Z,95366.31
2023-04-17T23:40:01.984Z,95363.53
2023-04-17T23:42:29.625Z,95371.38
2023-04-17T23:44:57.294Z,95357.53
2023-04-17T23:47:24.940Z,95359.16
2023-04-17T23:49:54.320Z,95363.53
2023-04-17T23:52:21.947Z,95360.81
2023-04-17T23:54:49.606Z,95361.59
2023-04-17T23:57:18.464Z,95355.59
2023-04-17T23:59:46.224Z,95346.94
